Time;durP1;ratioP1;P1;durP2;ratioP2;P2;SDS_P1;SDS_P2;PMS_P1;PMS_P2;Temp;Humidity;BMP_temperature;BMP_pressure;BME280_temperature;BME280_humidity;BME280_pressure;Samples;Min_cycle;Max_cycle;Signal;HPM_P1;HPM_P2
2021/08/06 00:01:35;;;;;;;18.80;13.68;;;13.10;99.90;;;;;;4963336;28;20046;-83
2021/08/06 00:04:02;;;;;;;17.75;13.00;;;13.00;99.90;;;;;;4991713;28;20053;-83
2021/08/06 00:06:40;;;;;;;20.38;12.93;;;13.10;99.90;;;;;;4993217;28;20046;-83
2021/08/06 00:09:09;;;;;;;16.58;12.40;;;13.00;99.90;;;;;;4997444;28;20104;-82
2021/08/06 00:11:36;;;;;;;24.63;14.45;;;13.00;99.90;;;;;;4980470;28;20038;-83
2021/08/06 00:14:04;;;;;;;22.80;14.57;;;13.00;99.90;;;;;;4996129;28;20128;-81
2021/08/06 00:16:31;;;;;;;19.30;13.13;;;13.00;99.90;;;;;;4974837;28;20055;-81
2021/08/06 00:18:59;;;;;;;18.70;12.48;;;13.10;99.90;;;;;;4945624;28;20061;-81
2021/08/06 00:21:27;;;;;;;21.75;14.25;;;13.10;99.90;;;;;;4943474;28;20042;-82
2021/08/06 00:23:54;;;;;;;19.92;13.80;;;12.90;99.90;;;;;;4958558;28;20047;-81
2021/08/06 00:26:20;;;;;;;26.08;13.82;;;13.00;99.90;;;;;;4952436;28;20130;-81
2021/08/06 00:28:47;;;;;;;17.80;11.88;;;13.00;99.90;;;;;;4977210;28;20054;-83
2021/08/06 00:31:14;;;;;;;18.08;12.65;;;13.00;99.90;;;;;;4998383;28;20054;-81
2021/08/06 00:33:41;;;;;;;19.70;14.35;;;13.00;99.90;;;;;;4985076;28;20053;-81
2021/08/06 00:36:11;;;;;;;18.38;12.50;;;13.10;99.90;;;;;;4987457;28;20054;-83
2021/08/06 00:38:38;;;;;;;19.52;13.90;;;13.20;99.90;;;;;;4944670;28;20055;-82
2021/08/06 00:41:05;;;;;;;20.50;14.23;;;13.20;99.90;;;;;;4942785;28;20050;-83
2021/08/06 00:43:33;;;;;;;20.40;14.13;;;13.10;99.90;;;;;;4964037;28;20054;-81
2021/08/06 00:46:05;;;;;;;17.48;13.07;;;13.10;99.90;;;;;;4960847;28;20074;-82
2021/08/06 00:48:36;;;;;;;19.73;12.85;;;13.20;99.90;;;;;;4963088;28;20046;-79
2021/08/06 00:51:07;;;;;;;18.33;13.35;;;13.20;99.90;;;;;;4946896;28;20170;-82
2021/08/06 00:53:37;;;;;;;19.88;13.98;;;13.20;99.90;;;;;;4959295;28;20089;-82
2021/08/06 00:56:09;;;;;;;22.73;13.38;;;13.20;99.90;;;;;;4947704;28;20070;-79
2021/08/06 00:58:42;;;;;;;19.85;13.40;;;13.10;99.90;;;;;;4972599;28;20625;-83
2021/08/06 01:01:20;;;;;;;21.58;13.48;;;13.00;99.90;;;;;;4962977;28;20050;-81
2021/08/06 01:03:58;;;;;;;22.98;14.18;;;12.90;99.90;;;;;;4963686;28;20064;-81
2021/08/06 01:06:39;;;;;;;20.83;13.63;;;12.90;99.90;;;;;;4987426;28;20125;-82
2021/08/06 01:09:19;;;;;;;20.23;13.90;;;12.90;99.90;;;;;;4991578;28;20057;-83
2021/08/06 01:11:52;;;;;;;19.42;13.50;;;12.80;99.90;;;;;;4998378;28;20397;-81
2021/08/06 01:14:25;;;;;;;21.13;13.30;;;12.80;99.90;;;;;;4971041;28;20550;-81
2021/08/06 01:16:57;;;;;;;20.95;15.40;;;12.70;99.90;;;;;;4956029;28;20092;-82
2021/08/06 01:20:04;;;;;;;30.90;16.88;;;12.80;99.90;;;;;;4990189;28;20140;-82
2021/08/06 01:22:39;;;;;;;21.38;14.65;;;12.70;99.90;;;;;;4974077;28;20585;-81
2021/08/06 01:25:09;;;;;;;23.27;14.55;;;12.60;99.90;;;;;;4974447;28;20058;-81
2021/08/06 01:27:48;;;;;;;28.77;17.40;;;12.60;99.90;;;;;;4983953;28;20053;-82
2021/08/06 01:30:19;;;;;;;;;;;12.60;99.90;;;;;;4990945;28;20046;-81
2021/08/06 01:32:47;;;;;;;24.90;16.58;;;12.60;99.90;;;;;;4974808;28;20298;-81
2021/08/06 01:35:18;;;;;;;28.27;17.70;;;12.60;99.90;;;;;;4993388;28;20475;-82
2021/08/06 01:37:45;;;;;;;25.48;15.80;;;12.50;99.90;;;;;;4977839;28;20050;-81
2021/08/06 01:40:13;;;;;;;23.85;15.55;;;12.40;99.90;;;;;;4957200;28;20054;-81
2021/08/06 01:43:09;;;;;;;;;;;12.40;99.90;;;;;;4943973;28;20042;-81
2021/08/06 01:45:40;;;;;;;20.95;14.55;;;12.30;99.90;;;;;;4953658;28;19922;-81
2021/08/06 01:48:13;;;;;;;24.35;16.45;;;12.40;99.90;;;;;;4953609;28;20043;-82
2021/08/06 01:50:44;;;;;;;31.30;18.00;;;12.40;99.90;;;;;;4955110;28;20049;-83
2021/08/06 01:53:19;;;;;;;33.25;19.50;;;12.50;99.90;;;;;;4970228;28;20142;-80
2021/08/06 01:56:00;;;;;;;34.70;20.90;;;12.60;99.90;;;;;;4965829;28;20070;-82
2021/08/06 01:58:41;;;;;;;37.58;20.80;;;12.60;99.90;;;;;;4979838;28;20046;-82
2021/08/06 02:01:13;;;;;;;29.85;19.55;;;12.70;99.90;;;;;;4983512;28;20046;-82
2021/08/06 02:03:47;;;;;;;29.85;19.40;;;12.80;99.90;;;;;;4982021;28;20527;-82
2021/08/06 02:06:27;;;;;;;31.58;19.63;;;12.80;99.90;;;;;;4988684;28;20041;-80
2021/08/06 02:08:59;;;;;;;30.83;19.33;;;12.90;99.90;;;;;;4983157;28;20038;-81
2021/08/06 02:11:31;;;;;;;31.35;20.38;;;12.90;99.90;;;;;;4995308;28;20046;-81
2021/08/06 02:14:00;;;;;;;33.47;19.48;;;12.80;99.90;;;;;;4955423;28;20056;-81
2021/08/06 02:16:28;;;;;;;31.38;19.45;;;12.90;99.90;;;;;;4984563;28;20505;-81
2021/08/06 02:19:00;;;;;;;30.35;18.50;;;12.80;99.90;;;;;;4988585;28;20185;-81
2021/08/06 02:21:31;;;;;;;27.33;16.83;;;12.70;99.90;;;;;;4968639;28;20138;-81
2021/08/06 02:24:11;;;;;;;33.72;20.00;;;12.70;99.90;;;;;;4956316;28;20047;-81
2021/08/06 02:26:43;;;;;;;33.20;19.38;;;12.80;99.90;;;;;;4962548;28;20050;-80
2021/08/06 02:29:14;;;;;;;38.47;21.30;;;12.80;99.90;;;;;;4988979;28;20047;-82
2021/08/06 02:31:44;;;;;;;34.90;20.08;;;12.80;99.90;;;;;;4956911;28;20133;-81
2021/08/06 02:34:15;;;;;;;33.03;20.92;;;12.90;99.90;;;;;;4965718;28;20043;-81
2021/08/06 02:36:44;;;;;;;34.67;20.13;;;13.00;99.90;;;;;;4966355;28;20106;-81
2021/08/06 02:39:22;;;;;;;29.02;18.77;;;13.00;99.90;;;;;;4957612;28;20123;-82
2021/08/06 02:41:50;;;;;;;30.27;19.23;;;12.80;99.90;;;;;;4987001;23;20057;-82
2021/08/06 02:44:17;;;;;;;33.38;19.20;;;12.80;99.90;;;;;;4990987;28;20130;-82
2021/08/06 02:46:44;;;;;;;30.30;18.33;;;12.70;99.90;;;;;;4992153;28;20046;-80
2021/08/06 02:49:12;;;;;;;32.55;20.02;;;12.70;99.90;;;;;;4968678;28;20121;-81
2021/08/06 02:51:39;;;;;;;35.28;20.52;;;12.80;99.90;;;;;;4976700;28;20093;-81
2021/08/06 02:54:06;;;;;;;34.55;20.00;;;12.70;99.90;;;;;;4964809;28;20496;-80
2021/08/06 02:56:34;;;;;;;32.83;19.83;;;12.70;99.90;;;;;;4979080;28;20055;-81
2021/08/06 02:59:02;;;;;;;32.80;20.83;;;12.60;99.90;;;;;;4980789;28;20113;-81
2021/08/06 03:01:30;;;;;;;36.08;18.95;;;12.60;99.90;;;;;;4962370;28;20184;-80
2021/08/06 03:04:00;;;;;;;39.90;22.15;;;12.70;99.90;;;;;;4972489;28;20050;-83
2021/08/06 03:06:28;;;;;;;46.38;24.52;;;12.50;99.90;;;;;;4987862;28;20114;-82
2021/08/06 03:08:56;;;;;;;46.53;24.70;;;12.50;99.90;;;;;;4955781;28;20468;-81
2021/08/06 03:11:24;;;;;;;43.70;23.38;;;12.60;99.90;;;;;;4990063;28;20061;-82
2021/08/06 03:13:53;;;;;;;41.08;24.30;;;12.60;99.90;;;;;;5001660;28;20256;-82
2021/08/06 03:16:20;;;;;;;49.00;25.77;;;12.60;99.90;;;;;;4992202;28;20130;-82
2021/08/06 03:18:49;;;;;;;40.97;23.27;;;12.60;99.90;;;;;;4991811;28;20053;-81
2021/08/06 03:21:18;;;;;;;35.17;22.25;;;12.50;99.90;;;;;;4993169;28;20042;-81
2021/08/06 03:23:45;;;;;;;37.45;23.00;;;12.50;99.90;;;;;;4982060;28;20161;-81
2021/08/06 03:26:13;;;;;;;53.63;28.90;;;12.60;99.90;;;;;;4998781;28;20038;-81
2021/08/06 03:28:41;;;;;;;60.15;30.48;;;12.70;99.90;;;;;;4989969;28;20092;-83
2021/08/06 03:31:08;;;;;;;41.78;24.77;;;12.70;99.90;;;;;;4985795;28;20076;-82
2021/08/06 03:33:36;;;;;;;50.42;25.63;;;12.70;99.90;;;;;;4998267;28;20038;-82
2021/08/06 03:36:05;;;;;;;61.35;30.00;;;12.70;99.90;;;;;;5003362;28;20030;-83
2021/08/06 03:38:33;;;;;;;55.83;28.98;;;12.70;99.90;;;;;;5003851;28;20056;-83
2021/08/06 03:41:01;;;;;;;60.72;29.83;;;12.70;99.90;;;;;;4967311;28;20039;-81
2021/08/06 03:43:29;;;;;;;55.17;28.65;;;12.60;99.90;;;;;;5002328;28;20050;-83
2021/08/06 03:45:57;;;;;;;67.30;30.30;;;12.60;99.90;;;;;;4958228;28;20043;-82
2021/08/06 03:48:24;;;;;;;57.90;28.55;;;12.70;99.90;;;;;;4974348;28;20054;-83
2021/08/06 03:50:53;;;;;;;52.67;28.27;;;12.70;99.90;;;;;;4978149;28;20050;-81
2021/08/06 03:53:20;;;;;;;55.85;29.73;;;12.80;99.90;;;;;;5010673;28;20085;-82
2021/08/06 03:55:48;;;;;;;57.30;29.40;;;12.70;99.90;;;;;;4995739;28;20073;-82
2021/08/06 03:58:16;;;;;;;57.65;28.70;;;12.80;99.90;;;;;;5022330;28;20074;-82
2021/08/06 04:00:43;;;;;;;59.42;29.45;;;12.80;99.90;;;;;;4999308;22;20053;-74
2021/08/06 04:03:12;;;;;;;43.97;26.33;;;12.80;99.90;;;;;;4968372;28;20137;-75
2021/08/06 04:05:39;;;;;;;47.42;25.00;;;12.90;99.90;;;;;;4984395;28;20046;-75
2021/08/06 04:08:08;;;;;;;46.92;25.95;;;12.80;99.90;;;;;;5005677;28;20061;-75
2021/08/06 04:10:39;;;;;;;43.75;25.48;;;12.80;99.90;;;;;;4976684;28;20060;-75
2021/08/06 04:13:08;;;;;;;46.50;26.52;;;12.80;99.90;;;;;;4967335;28;20050;-74
2021/08/06 04:15:35;;;;;;;39.10;25.13;;;12.80;99.90;;;;;;4982471;28;20054;-74
2021/08/06 04:18:01;;;;;;;45.05;24.98;;;12.90;99.90;;;;;;4982982;28;20649;-75
2021/08/06 04:20:28;;;;;;;42.88;24.08;;;12.90;99.90;;;;;;4965573;28;20050;-74
2021/08/06 04:22:55;;;;;;;40.38;23.50;;;13.00;99.90;;;;;;4952791;28;20057;-74
2021/08/06 04:25:23;;;;;;;44.97;24.65;;;13.00;99.90;;;;;;4982358;28;20055;-74
2021/08/06 04:27:50;;;;;;;42.45;22.95;;;13.00;99.90;;;;;;4984324;28;20203;-74
2021/08/06 04:30:18;;;;;;;37.90;22.75;;;13.00;99.90;;;;;;4967471;28;20042;-74
2021/08/06 04:32:45;;;;;;;40.70;24.30;;;13.10;99.90;;;;;;4983475;28;20053;-74
2021/08/06 04:35:12;;;;;;;38.80;24.02;;;13.20;99.90;;;;;;4977148;28;20042;-75
2021/08/06 04:37:48;;;;;;;39.08;24.83;;;13.20;99.90;;;;;;5001056;28;20049;-75
2021/08/06 04:40:16;;;;;;;39.55;24.25;;;13.30;99.90;;;;;;4959341;28;20109;-74
2021/08/06 04:42:43;;;;;;;40.22;24.42;;;13.30;99.90;;;;;;4966726;28;20034;-74
2021/08/06 04:45:11;;;;;;;38.17;24.02;;;13.40;99.90;;;;;;4983541;28;20125;-74
2021/08/06 04:47:48;;;;;;;34.45;22.65;;;13.50;99.90;;;;;;4982804;28;20069;-74
2021/08/06 04:50:19;;;;;;;31.80;22.02;;;13.70;99.90;;;;;;4983616;28;20054;-75
2021/08/06 04:52:53;;;;;;;26.88;19.25;;;13.80;99.90;;;;;;4989183;28;20103;-75
2021/08/06 04:55:20;;;;;;;27.88;19.65;;;14.00;99.90;;;;;;4947093;28;20078;-75
2021/08/06 04:57:47;;;;;;;30.30;20.45;;;14.00;99.90;;;;;;4932191;28;20054;-74
2021/08/06 05:00:16;;;;;;;27.60;20.17;;;14.10;99.90;;;;;;4932567;28;20197;-74
2021/08/06 05:02:44;;;;;;;30.45;21.20;;;14.00;99.90;;;;;;4965978;28;20101;-75
2021/08/06 05:05:11;;;;;;;29.55;20.38;;;13.90;99.90;;;;;;4975173;28;20050;-74
2021/08/06 05:07:39;;;;;;;32.25;20.80;;;13.90;99.90;;;;;;4980926;28;20063;-74
2021/08/06 05:10:07;;;;;;;30.33;21.25;;;13.80;99.90;;;;;;4966785;28;20041;-74
2021/08/06 05:12:34;;;;;;;38.15;21.80;;;13.80;99.90;;;;;;4966074;28;20038;-74
2021/08/06 05:15:01;;;;;;;29.38;20.02;;;13.80;99.90;;;;;;4973298;28;20050;-75
2021/08/06 05:17:28;;;;;;;29.10;19.85;;;13.90;99.90;;;;;;4983120;28;20050;-74
2021/08/06 05:19:55;;;;;;;30.35;20.95;;;13.90;99.90;;;;;;4967374;28;20089;-75
2021/08/06 05:22:26;;;;;;;30.55;20.13;;;14.00;99.90;;;;;;4982557;28;20455;-75
2021/08/06 05:24:53;;;;;;;30.38;20.25;;;14.00;99.90;;;;;;4971674;28;20677;-75
2021/08/06 05:27:22;;;;;;;26.08;18.70;;;14.10;99.90;;;;;;4954424;28;20125;-74
2021/08/06 05:29:49;;;;;;;35.10;20.30;;;14.10;99.90;;;;;;4969933;28;20055;-73
2021/08/06 05:32:16;;;;;;;28.27;18.05;;;14.20;99.90;;;;;;4969970;28;20046;-74
2021/08/06 05:34:45;;;;;;;28.45;18.77;;;14.20;99.90;;;;;;4984643;28;20045;-75
2021/08/06 05:37:12;;;;;;;26.10;18.40;;;14.30;99.90;;;;;;5012536;28;20259;-74
2021/08/06 05:39:40;;;;;;;31.25;18.10;;;14.30;99.90;;;;;;5012692;28;20058;-75
2021/08/06 05:42:08;;;;;;;27.02;17.80;;;14.30;99.90;;;;;;4977080;28;20137;-74
2021/08/06 05:44:35;;;;;;;29.92;18.77;;;14.40;99.90;;;;;;4963487;28;20070;-75
2021/08/06 05:47:02;;;;;;;27.08;17.13;;;14.50;99.90;;;;;;4961489;28;20218;-75
2021/08/06 05:49:30;;;;;;;25.63;17.15;;;14.60;99.90;;;;;;4947479;28;20222;-75
2021/08/06 05:51:57;;;;;;;24.95;17.33;;;14.60;99.90;;;;;;4947136;28;20567;-75
2021/08/06 05:54:24;;;;;;;28.27;17.48;;;14.60;99.90;;;;;;4946714;28;20051;-75
2021/08/06 05:56:54;;;;;;;22.45;15.50;;;14.70;99.90;;;;;;4963242;28;20283;-75
2021/08/06 05:59:21;;;;;;;26.48;16.88;;;14.70;99.90;;;;;;4963706;28;20086;-75
2021/08/06 06:01:48;;;;;;;24.98;15.82;;;14.70;99.90;;;;;;4962169;28;20057;-75
2021/08/06 06:04:34;;;;;;;20.83;15.70;;;14.90;99.90;;;;;;4972268;28;20046;-73
2021/08/06 06:07:08;;;;;;;21.07;14.97;;;15.00;99.90;;;;;;4950081;28;20038;-73
2021/08/06 06:09:35;;;;;;;20.80;15.32;;;15.10;99.90;;;;;;4966554;28;20089;-73
2021/08/06 06:12:02;;;;;;;21.77;16.13;;;15.20;99.90;;;;;;4965873;28;20255;-73
2021/08/06 06:14:30;;;;;;;19.90;14.63;;;15.30;99.90;;;;;;4987060;28;20057;-72
2021/08/06 06:16:58;;;;;;;24.35;15.13;;;15.30;99.90;;;;;;4990735;28;20066;-73
2021/08/06 06:19:25;;;;;;;19.33;14.10;;;15.40;99.90;;;;;;5024716;28;20060;-72
2021/08/06 06:21:52;;;;;;;18.77;13.30;;;15.50;99.90;;;;;;4973145;28;20069;-73
2021/08/06 06:24:19;;;;;;;17.65;13.25;;;15.70;99.90;;;;;;5004497;28;20057;-72
2021/08/06 06:26:45;;;;;;;15.13;11.30;;;16.00;99.90;;;;;;4989247;28;20546;-73
2021/08/06 06:29:15;;;;;;;14.07;10.32;;;16.20;99.90;;;;;;4986665;28;20097;-72
2021/08/06 06:31:42;;;;;;;14.75;9.63;;;16.40;99.90;;;;;;4973243;28;20053;-72
2021/08/06 06:34:09;;;;;;;11.40;9.32;;;16.70;99.90;;;;;;4976848;28;20058;-73
2021/08/06 06:36:36;;;;;;;11.32;9.88;;;17.20;99.90;;;;;;4978679;28;20067;-72
2021/08/06 06:39:03;;;;;;;11.85;9.25;;;17.40;99.90;;;;;;4993720;28;20444;-75
2021/08/06 06:41:30;;;;;;;10.88;8.63;;;17.50;99.90;;;;;;4968426;28;20126;-75
2021/08/06 06:44:04;;;;;;;11.30;7.80;;;17.60;99.90;;;;;;4962502;28;20271;-75
2021/08/06 06:46:31;;;;;;;11.60;9.20;;;17.90;99.90;;;;;;4986979;28;20108;-75
2021/08/06 06:48:58;;;;;;;11.45;9.40;;;17.80;99.90;;;;;;4985245;28;20070;-72
2021/08/06 06:51:25;;;;;;;13.10;10.18;;;17.60;99.90;;;;;;4966971;28;20054;-73
2021/08/06 06:53:52;;;;;;;14.10;10.10;;;17.20;99.90;;;;;;4978834;28;20084;-73
2021/08/06 06:56:19;;;;;;;12.43;10.20;;;17.00;99.90;;;;;;4977297;28;20038;-73
2021/08/06 06:58:46;;;;;;;12.07;9.68;;;16.90;99.90;;;;;;4988742;28;20054;-73
2021/08/06 07:01:16;;;;;;;13.43;9.77;;;17.10;99.90;;;;;;4968718;28;20046;-73
2021/08/06 07:03:43;;;;;;;10.95;9.77;;;17.30;99.90;;;;;;4986640;28;20050;-75
2021/08/06 07:06:12;;;;;;;11.88;10.32;;;17.30;99.90;;;;;;4978321;28;20457;-75
2021/08/06 07:08:39;;;;;;;13.18;10.00;;;17.40;99.90;;;;;;5005011;28;20195;-73
2021/08/06 07:11:06;;;;;;;10.90;9.77;;;17.60;99.90;;;;;;4987747;28;20058;-73
2021/08/06 07:13:34;;;;;;;15.07;9.93;;;17.60;99.90;;;;;;4980195;28;20058;-73
2021/08/06 07:16:01;;;;;;;12.27;9.63;;;17.50;99.90;;;;;;4954795;28;20141;-73
2021/08/06 07:18:29;;;;;;;11.80;9.57;;;17.50;99.90;;;;;;4949148;28;20061;-73
2021/08/06 07:20:56;;;;;;;10.82;9.68;;;17.50;99.90;;;;;;4949220;28;20043;-73
2021/08/06 07:23:23;;;;;;;11.10;9.88;;;17.50;99.90;;;;;;4969781;28;20433;-73
2021/08/06 07:25:49;;;;;;;13.55;10.02;;;17.60;99.90;;;;;;4968104;28;20104;-74
2021/08/06 07:28:16;;;;;;;10.38;9.13;;;17.80;99.90;;;;;;4968182;28;20396;-73
2021/08/06 07:30:43;;;;;;;11.18;9.18;;;18.10;99.90;;;;;;4968477;28;20073;-73
2021/08/06 07:33:10;;;;;;;11.02;9.93;;;18.10;99.90;;;;;;4986439;28;20085;-73
2021/08/06 07:35:37;;;;;;;12.95;10.70;;;18.30;99.90;;;;;;5006043;28;20574;-73
2021/08/06 07:38:04;;;;;;;10.93;9.48;;;18.30;99.90;;;;;;5001243;28;20296;-73
2021/08/06 07:40:32;;;;;;;11.10;8.68;;;18.50;99.90;;;;;;4962653;28;20058;-73
2021/08/06 07:43:00;;;;;;;11.70;9.35;;;18.40;99.90;;;;;;4983040;28;20151;-76
2021/08/06 07:45:27;;;;;;;11.98;9.52;;;18.30;99.90;;;;;;4979042;28;20120;-75
2021/08/06 07:47:57;;;;;;;12.23;9.73;;;18.20;99.90;;;;;;4982509;28;20066;-75
2021/08/06 07:50:24;;;;;;;11.45;9.73;;;18.10;99.90;;;;;;4984214;28;20057;-76
2021/08/06 07:52:51;;;;;;;9.88;8.88;;;18.10;99.90;;;;;;4984525;28;20050;-75
2021/08/06 07:55:18;;;;;;;9.95;8.95;;;18.10;99.90;;;;;;4950791;28;20452;-74
2021/08/06 07:57:47;;;;;;;12.27;9.30;;;18.10;99.90;;;;;;4968195;28;20074;-73
2021/08/06 08:00:15;;;;;;;10.50;9.25;;;18.20;99.90;;;;;;4983623;28;20061;-73
2021/08/06 08:02:42;;;;;;;9.48;8.27;;;18.20;99.90;;;;;;4968080;28;20455;-74
2021/08/06 08:05:15;;;;;;;9.88;8.82;;;18.30;99.90;;;;;;4970730;28;20054;-73
2021/08/06 08:07:42;;;;;;;10.65;9.13;;;18.30;99.90;;;;;;4970488;28;20065;-73
2021/08/06 08:10:10;;;;;;;11.43;9.40;;;18.20;99.90;;;;;;4951956;28;20054;-74
2021/08/06 08:12:37;;;;;;;10.93;8.57;;;18.30;99.90;;;;;;4966809;28;20042;-75
2021/08/06 08:15:08;;;;;;;9.85;8.13;;;18.20;99.90;;;;;;4978747;28;20101;-75
2021/08/06 08:17:35;;;;;;;10.35;8.40;;;18.10;99.90;;;;;;4957041;28;20101;-75
2021/08/06 08:20:02;;;;;;;9.68;8.40;;;18.00;99.90;;;;;;4983222;28;20372;-75
2021/08/06 08:22:30;;;;;;;13.15;8.80;;;18.00;99.90;;;;;;4984264;28;20038;-75
2021/08/06 08:24:57;;;;;;;9.70;7.00;;;18.00;99.90;;;;;;4965948;28;20038;-75
2021/08/06 08:27:28;;;;;;;9.13;7.47;;;18.00;99.90;;;;;;4964139;28;20275;-75
2021/08/06 08:29:58;;;;;;;10.90;7.88;;;17.80;99.90;;;;;;4949474;28;20689;-75
2021/08/06 08:32:25;;;;;;;9.20;8.15;;;17.70;99.90;;;;;;4945304;28;20038;-75
2021/08/06 08:34:51;;;;;;;12.77;9.68;;;17.70;99.90;;;;;;4977417;28;20037;-75
2021/08/06 08:37:19;;;;;;;10.75;9.00;;;17.70;99.90;;;;;;4995683;28;20092;-74
2021/08/06 08:39:46;;;;;;;14.07;9.20;;;17.70;99.90;;;;;;4966068;28;20235;-75
2021/08/06 08:42:15;;;;;;;10.70;8.95;;;17.60;99.90;;;;;;4964324;28;20174;-73
2021/08/06 08:44:42;;;;;;;11.55;9.85;;;17.40;99.90;;;;;;4967649;28;20043;-74
2021/08/06 08:47:09;;;;;;;14.40;10.52;;;17.20;99.90;;;;;;4981334;28;20089;-74
2021/08/06 08:49:37;;;;;;;15.10;11.40;;;17.10;99.90;;;;;;4982507;28;20065;-75
2021/08/06 08:52:05;;;;;;;13.48;11.75;;;17.00;99.90;;;;;;4965061;28;20054;-74
2021/08/06 08:54:31;;;;;;;13.52;11.43;;;16.90;99.90;;;;;;4982946;28;20130;-74
2021/08/06 08:56:58;;;;;;;17.70;12.75;;;16.80;99.90;;;;;;4958301;28;20046;-75
2021/08/06 08:59:26;;;;;;;16.52;12.60;;;16.70;99.90;;;;;;4947272;28;20134;-74
2021/08/06 09:01:53;;;;;;;16.40;13.05;;;16.60;99.90;;;;;;4949287;28;20050;-74
2021/08/06 09:04:24;;;;;;;16.23;12.75;;;16.60;99.90;;;;;;4990542;28;20337;-75
2021/08/06 09:06:52;;;;;;;15.38;11.60;;;16.70;99.90;;;;;;4957145;28;20074;-75
2021/08/06 09:10:10;;;;;;;20.05;13.35;;;16.60;99.90;;;;;;4975971;28;20412;-75
2021/08/06 09:12:59;;;;;;;13.82;10.80;;;16.70;99.90;;;;;;4982673;28;20081;-76
2021/08/06 09:15:54;;;;;;;15.00;11.25;;;16.80;99.90;;;;;;4965869;28;20049;-76
2021/08/06 09:18:28;;;;;;;16.92;13.85;;;16.80;99.90;;;;;;4968844;28;20486;-76
2021/08/06 09:20:58;;;;;;;12.65;10.32;;;17.00;99.90;;;;;;4964274;28;20059;-76
2021/08/06 09:23:44;;;;;;;12.13;10.05;;;17.20;99.90;;;;;;4948350;28;20055;-76
2021/08/06 09:26:26;;;;;;;10.65;9.00;;;17.20;99.90;;;;;;4947684;28;20125;-76
2021/08/06 09:29:21;;;;;;;11.52;10.32;;;17.40;99.90;;;;;;4963140;28;20050;-77
2021/08/06 09:31:51;;;;;;;9.23;7.63;;;17.60;99.90;;;;;;4983193;28;20046;-77
2021/08/06 09:34:36;;;;;;;10.85;7.88;;;17.80;99.90;;;;;;4971489;28;20088;-77
2021/08/06 09:37:09;;;;;;;7.95;7.10;;;18.20;99.90;;;;;;4981564;28;20462;-77
2021/08/06 09:39:39;;;;;;;6.75;6.05;;;18.50;99.90;;;;;;4964562;28;20046;-76
2021/08/06 09:42:20;;;;;;;7.20;6.35;;;18.80;99.90;;;;;;4978493;28;20045;-76
2021/08/06 09:44:56;;;;;;;6.10;5.30;;;18.90;99.90;;;;;;4963106;28;20058;-75
2021/08/06 09:47:24;;;;;;;6.10;5.50;;;19.00;99.90;;;;;;4962425;28;20059;-76
2021/08/06 09:49:54;;;;;;;7.22;6.22;;;18.80;99.90;;;;;;4965267;28;20054;-76
2021/08/06 09:52:35;;;;;;;6.90;5.95;;;18.70;99.90;;;;;;4963105;28;20043;-76
2021/08/06 09:55:23;;;;;;;7.72;6.97;;;18.50;99.90;;;;;;4964267;28;20053;-77
2021/08/06 09:57:51;;;;;;;7.53;6.35;;;18.50;99.90;;;;;;4963427;28;20085;-76
2021/08/06 10:00:20;;;;;;;6.82;5.88;;;18.50;99.90;;;;;;4963121;28;20073;-75
2021/08/06 10:02:48;;;;;;;5.90;4.53;;;18.40;99.90;;;;;;4965455;28;20053;-76
2021/08/06 10:05:18;;;;;;;5.28;4.00;;;18.20;99.90;;;;;;4991952;28;20046;-76
2021/08/06 10:07:51;;;;;;;5.93;3.90;;;18.20;99.90;;;;;;4985709;28;20158;-76
2021/08/06 10:10:21;;;;;;;5.38;3.88;;;18.40;99.90;;;;;;4982829;28;20050;-77
2021/08/06 10:12:49;;;;;;;4.45;4.05;;;18.60;99.90;;;;;;4989249;28;20166;-77
2021/08/06 10:15:19;;;;;;;3.40;3.08;;;18.80;99.90;;;;;;4986613;28;20042;-77
2021/08/06 10:17:47;;;;;;;6.20;3.13;;;18.80;99.90;;;;;;4987672;28;20058;-77
2021/08/06 10:20:16;;;;;;;3.33;2.88;;;18.90;99.90;;;;;;4958044;28;20046;-77
2021/08/06 10:22:43;;;;;;;3.15;2.80;;;19.10;99.90;;;;;;4950964;28;20267;-77
2021/08/06 10:25:13;;;;;;;3.70;2.78;;;19.20;99.90;;;;;;4967199;28;20133;-77
2021/08/06 10:27:46;;;;;;;3.40;3.10;;;19.20;99.90;;;;;;4970308;28;20501;-76
2021/08/06 10:30:24;;;;;;;1.48;1.38;;;19.30;99.90;;;;;;4968762;28;20511;-76
2021/08/06 10:33:22;;;;;;;4.72;1.88;;;18.60;99.90;;;;;;4972173;28;20431;-76
2021/08/06 10:35:50;;;;;;;;;;;17.80;99.90;;;;;;4996407;28;20062;-75
2021/08/06 10:38:37;;;;;;;5.95;3.75;;;17.20;99.90;;;;;;4987870;28;19940;-74
2021/08/06 10:41:08;;;;;;;6.32;3.13;;;16.80;99.90;;;;;;4989465;28;20581;-76
2021/08/06 10:43:37;;;;;;;6.95;3.75;;;16.50;99.90;;;;;;4972366;28;20086;-75
2021/08/06 10:46:04;;;;;;;6.15;3.70;;;16.40;99.90;;;;;;4967912;28;20045;-76
2021/08/06 10:48:31;;;;;;;5.05;3.10;;;16.30;99.90;;;;;;4997375;28;20061;-75
2021/08/06 10:51:16;;;;;;;5.28;3.47;;;16.40;99.90;;;;;;4995418;28;20052;-74
2021/08/06 10:53:46;;;;;;;7.13;4.75;;;16.60;99.90;;;;;;4987374;28;20061;-75
2021/08/06 10:56:16;;;;;;;6.85;4.30;;;16.80;99.90;;;;;;4986406;28;20503;-76
2021/08/06 10:58:52;;;;;;;40.65;7.45;;;17.00;99.90;;;;;;4983516;28;20057;-77
2021/08/06 11:04:27;;;;;;;112.68;14.18;;;17.70;99.90;;;;;;4985507;28;20148;-77
2021/08/06 11:06:56;;;;;;;118.07;14.45;;;18.00;99.90;;;;;;4972350;28;20046;-78
2021/08/06 11:09:25;;;;;;;299.05;30.13;;;18.40;99.90;;;;;;4985287;28;20050;-79
2021/08/06 11:11:58;;;;;;;20.60;4.60;;;18.90;99.90;;;;;;4987076;28;20142;-79
2021/08/06 11:14:28;;;;;;;15.43;4.60;;;19.00;99.90;;;;;;4984570;28;20050;-79
2021/08/06 11:17:11;;;;;;;19.55;5.65;;;19.30;99.90;;;;;;4949375;28;20075;-79
2021/08/06 11:19:40;;;;;;;3.42;2.78;;;19.70;99.90;;;;;;4985847;28;20042;-78
2021/08/06 11:22:10;;;;;;;4.28;3.00;;;19.80;99.90;;;;;;4952138;28;20034;-77
2021/08/06 11:24:38;;;;;;;3.92;2.70;;;19.90;99.90;;;;;;4987566;28;20105;-76
2021/08/06 11:27:05;;;;;;;2.65;2.10;;;19.80;99.90;;;;;;4965851;28;20066;-76
2021/08/06 11:29:32;;;;;;;3.67;2.30;;;19.70;99.90;;;;;;4948540;28;20051;-76
2021/08/06 11:32:06;;;;;;;3.40;2.10;;;19.60;99.90;;;;;;4968940;28;20073;-76
2021/08/06 11:34:55;;;;;;;2.45;2.20;;;19.30;99.90;;;;;;4991131;28;20042;-76
2021/08/06 11:37:25;;;;;;;2.22;1.95;;;19.40;99.90;;;;;;4967385;28;20106;-76
2021/08/06 11:40:04;;;;;;;2.90;1.80;;;19.30;99.90;;;;;;4982163;28;20593;-76
2021/08/06 11:42:31;;;;;;;2.38;2.00;;;19.30;99.90;;;;;;4981009;28;20061;-76
2021/08/06 11:44:58;;;;;;;3.90;2.20;;;19.50;99.90;;;;;;4967883;28;20046;-76
2021/08/06 11:47:47;;;;;;;4.72;1.50;;;19.50;99.90;;;;;;4965685;28;20562;-76
2021/08/06 11:50:17;;;;;;;2.95;1.73;;;19.40;99.90;;;;;;4986999;28;20153;-79
2021/08/06 11:52:49;;;;;;;1.70;1.60;;;19.50;99.90;;;;;;4988737;28;20052;-78
2021/08/06 11:55:19;;;;;;;2.55;1.60;;;19.50;99.90;;;;;;4989020;28;20378;-78
2021/08/06 11:57:46;;;;;;;3.28;1.90;;;19.70;99.90;;;;;;4989576;28;20066;-77
2021/08/06 12:00:18;;;;;;;4.65;1.70;;;19.90;99.90;;;;;;4954399;28;20632;-78
2021/08/06 12:02:45;;;;;;;5.82;1.90;;;20.10;99.90;;;;;;4962259;28;20057;-80
2021/08/06 12:05:21;;;;;;;3.05;1.98;;;20.30;99.90;;;;;;4963101;28;20062;-79
2021/08/06 12:07:48;;;;;;;4.00;2.00;;;20.40;99.90;;;;;;4988370;28;20046;-77
2021/08/06 12:10:15;;;;;;;2.35;1.88;;;20.40;99.90;;;;;;4971024;28;20046;-77
2021/08/06 12:12:42;;;;;;;1.80;1.70;;;20.40;99.90;;;;;;4989160;28;20094;-78
2021/08/06 12:15:20;;;;;;;3.20;2.35;;;20.60;99.90;;;;;;4980185;28;20097;-77
2021/08/06 12:17:47;;;;;;;4.60;2.20;;;20.60;99.90;;;;;;4967550;28;20062;-76
2021/08/06 12:20:33;;;;;;;2.15;2.05;;;20.90;99.90;;;;;;4964383;28;20057;-75
2021/08/06 12:23:00;;;;;;;2.50;2.35;;;21.10;99.90;;;;;;4959173;28;20443;-75
2021/08/06 12:25:27;;;;;;;3.00;2.58;;;21.10;99.90;;;;;;4967269;28;20072;-77
2021/08/06 12:27:54;;;;;;;2.80;2.50;;;20.90;99.90;;;;;;4988031;28;20046;-76
2021/08/06 12:30:26;;;;;;;4.40;2.10;;;20.50;99.90;;;;;;4987595;28;20054;-75
2021/08/06 12:32:53;;;;;;;2.45;2.25;;;20.00;99.90;;;;;;4970759;28;20120;-76
2021/08/06 12:35:23;;;;;;;2.25;2.05;;;19.30;99.90;;;;;;4991459;28;20402;-75
2021/08/06 12:37:51;;;;;;;3.15;2.00;;;18.80;99.90;;;;;;4987842;28;20053;-75
2021/08/06 12:40:19;;;;;;;3.72;1.60;;;18.60;99.90;;;;;;5008248;28;20046;-76
2021/08/06 12:42:46;;;;;;;3.35;1.98;;;18.40;99.90;;;;;;4990202;28;20477;-75
2021/08/06 12:45:21;;;;;;;2.00;1.80;;;18.40;99.90;;;;;;4976882;28;20158;-76
2021/08/06 12:47:54;;;;;;;13.68;3.33;;;18.30;99.90;;;;;;4966590;28;20055;-80
2021/08/06 12:50:30;;;;;;;6.03;2.15;;;17.80;99.90;;;;;;4966768;28;20085;-80
2021/08/06 12:53:01;;;;;;;2.95;1.88;;;17.20;99.90;;;;;;4959476;28;20108;-76